Terminal Aerodrome Forecast
Issued by NWS Paducah, KY

Home | Current Version | Previous Version | Text Only | Print | Product List | Glossary On
Versions: 1 2 3 4 5 6 7 8 9 10 11 12 13 14 15 16 17 18 19 20
494
FTUS43 KPAH 261204 AAC
TAFPAH
TAF AMD
KPAH 261204Z 2612/2712 20005KT P6SM SCT035 BKN050
     FM261400 20010G15KT P6SM VCTS BKN020CB
     FM270100 18006KT P6SM BKN040=

USA.gov is the U.S. government's official web portal to all federal, state and local government web resources and services.